Latest Coastal Weather Observations for McCluer Island

IDD60701

Issued at 4:35 am CST Saturday 19 April 2014 (issued every 10 minutes, with the page automatically refreshed every 10 minutes)

About coastal observations | Map of coastal stations | Coastal observations for NT | Marine services | Other Formats
Station Details ID: 014274 Name: MCCLUER ISLAND Lat: -11.05 Lon: 132.98 Height: 1.4 m
Data from the previous 72 hours. | See also: Recent months at McCluer Island
Date/Time
CST
Temp

°C
Wind Pressure Rain
since 9am
mm
Weather Cloud Vis
km
Sea
Height
m
Swell
Dir
 
Speed
knots
Gust
knots
hPa Trend Height
m
Period
s
Dir
19/04:30am 26.9 SE 16 21 1009.5 - 46.8 - - - - - - -
19/04:00am 26.9 SE 15 19 1009.4 - 46.8 - - - - - - -
19/03:30am 26.9 SE 14 19 1009.5 - 46.8 - - - - - - -
19/03:00am 26.8 SE 12 16 1009.6 - 46.8 - - - - - - -
19/02:30am 27.3 SE 14 18 1009.6 - 46.8 - - - - - - -
19/02:00am 27.6 ESE 14 18 1009.7 - 46.8 - - - - - - -
19/01:30am 27.8 ESE 17 21 1009.8 - 46.8 - - - - - - -
19/01:00am 27.8 ESE 18 21 1010.0 - 46.8 - - - - - - -
19/12:30am 28.0 ESE 19 24 1010.2 - 46.8 - - - - - - -
19/12:00am 27.8 ESE 19 22 1010.3 - 46.8 - - - - - - -
 
Date/Time
CST
Temp

°C
Wind Pressure Rain
since 9am
mm
Weather Cloud Vis
km
Sea
Height
m
Swell
Dir
 
Speed
knots
Gust
knots
hPa Trend Height
m
Period
s
Dir
18/11:30pm 27.8 ESE 21 25 1010.8 - 46.8 - - - - - - -
18/11:00pm 27.8 E 21 25 1010.7 - 46.8 - - - - - - -
18/10:30pm 27.7 ESE 21 24 1010.8 - 46.8 - - - - - - -
18/10:00pm 27.7 E 18 21 1010.8 - 46.8 - - - - - - -
18/09:30pm 27.7 E 19 23 1010.9 - 46.8 - - - - - - -
18/09:00pm 27.9 ESE 20 23 1011.0 - 46.8 - - - - - - -
18/08:30pm 27.2 ESE 20 25 1010.7 - 46.8 - - - - - - -
18/08:00pm 27.4 ESE 19 22 1010.9 - 46.0 - - - - - - -
18/07:30pm 27.3 ESE 18 22 1010.6 - 44.6 - - - - - - -
18/07:00pm 27.3 ESE 16 21 1010.2 - 44.6 - - - - - - -
18/06:30pm 27.5 ESE 16 19 1009.6 - 44.6 - - - - - - -
18/06:00pm 27.0 E 15 18 1009.1 - 44.6 - - - - - - -
18/05:30pm 27.4 ESE 16 18 1008.7 - 44.6 - - - - - - -
18/05:00pm 27.3 E 14 16 1008.3 - 44.6 - - - - - - -
18/04:30pm 27.3 E 12 14 1008.2 - 44.6 - - - - - - -
18/04:00pm 27.1 E 12 14 1008.2 - 44.6 - - - - - - -
18/03:30pm 27.1 E 11 13 1008.4 - 44.6 - - - - - - -
18/03:00pm 26.6 E 11 13 1008.8 - 44.6 - - - - - - -
18/02:30pm 26.4 E 9 11 1009.3 - 44.6 - - - - - - -
18/02:00pm 26.0 ENE 7 9 1009.1 - 44.6 - - - - - - -
18/01:30pm 25.6 E 9 11 1009.5 - 44.2 - - - - - - -
18/01:00pm 25.4 E 12 13 1010.1 - 43.6 - - - - - - -
18/12:30pm 25.3 E 12 14 1010.6 - 43.2 - - - - - - -
18/12:00pm 25.2 ENE 12 16 1011.1 - 43.0 - - - - - - -
18/11:30am 25.2 NE 13 15 1011.4 - 41.4 - - - - - - -
18/11:00am 24.8 NE 18 25 1011.6 - 39.2 - - - - - - -
18/10:30am 24.9 NE 19 22 1011.8 - 33.4 - - - - - - -
18/10:00am 25.1 E 11 18 1011.7 - 23.2 - - - - - - -
18/09:30am 25.2 ENE 22 25 1011.4 - 3.2 - - - - - - -
18/09:23am 26.3 ENE 22 24 1011.0 - 1.4 - - - - - - -
18/09:00am 26.2 NE 13 15 1011.1 - 10.0 - - - - - - -
18/08:30am 26.2 ENE 17 20 1011.0 - 9.2 - - - - - - -
18/08:00am 27.0 ENE 15 17 1010.7 - 1.8 - - - - - - -
18/07:30am 26.6 ESE 9 13 1010.3 - 1.8 - - - - - - -
18/07:00am 26.3 ESE 9 11 1010.1 - 1.8 - - - - - - -
18/06:30am 26.6 S 7 14 1009.9 - 1.8 - - - - - - -
18/06:00am 27.6 SE 9 13 1009.5 - 0.0 - - - - - - -
18/05:30am 27.5 SE 10 13 1009.3 - 0.0 - - - - - - -
18/05:00am 27.4 SSE 8 11 1009.3 - 0.0 - - - - - - -
18/04:30am 27.5 SE 8 11 1009.3 - 0.0 - - - - - - -
18/04:00am 27.5 SSE 9 14 1009.0 - 0.0 - - - - - - -
18/03:30am 27.5 SE 8 10 1009.5 - 0.0 - - - - - - -
18/03:00am 27.6 SSE 9 14 1009.2 - 0.0 - - - - - - -
18/02:30am 27.5 SE 9 14 1009.7 - 0.0 - - - - - - -
18/02:00am 27.3 SE 11 14 1009.6 - 0.0 - - - - - - -
18/01:30am 27.5 SE 14 19 1009.8 - 0.0 - - - - - - -
18/01:00am 27.8 SE 14 20 1010.3 - 0.0 - - - - - - -
18/12:30am 28.1 SE 13 18 1010.7 - 0.0 - - - - - - -
18/12:00am 28.4 SE 13 17 1011.0 - 0.0 - - - - - - -
 
Date/Time
CST
Temp

°C
Wind Pressure Rain
since 9am
mm
Weather Cloud Vis
km
Sea
Height
m
Swell
Dir
 
Speed
knots
Gust
knots
hPa Trend Height
m
Period
s
Dir
17/11:30pm 28.4 SE 8 12 1010.9 - 0.0 - - - - - - -
17/11:00pm 27.6 SE 7 9 1010.8 - 0.0 - - - - - - -
17/10:30pm 27.5 SE 7 8 1010.8 - 0.0 - - - - - - -
17/10:00pm 27.3 SE 7 7 1010.6 - 0.0 - - - - - - -
17/09:30pm 27.2 SE 6 7 1010.4 - 0.0 - - - - - - -
17/09:00pm 27.3 SE 6 7 1010.3 - 0.0 - - - - - - -
17/08:30pm 27.5 SE 5 6 1010.2 - 0.0 - - - - - - -
17/08:00pm 27.7 SE 5 6 1009.8 - 0.0 - - - - - - -
17/07:30pm 27.9 ESE 5 6 1009.6 - 0.0 - - - - - - -
17/07:00pm 28.1 SE 5 6 1009.2 - 0.0 - - - - - - -
17/06:30pm 29.2 ESE 6 8 1008.7 - 0.0 - - - - - - -
17/06:00pm 29.8 E 7 10 1008.5 - 0.0 - - - - - - -
17/05:30pm 30.2 E 8 9 1008.4 - 0.0 - - - - - - -
17/05:00pm 30.5 E 7 9 1008.3 - 0.0 - - - - - - -
17/04:30pm 30.6 E 6 8 1008.2 - 0.0 - - - - - - -
17/04:00pm 30.2 ENE 6 7 1008.1 - 0.0 - - - - - - -
17/03:30pm 30.4 ENE 8 10 1008.1 - 0.0 - - - - - - -
17/03:00pm 30.7 ENE 8 10 1008.3 - 0.0 - - - - - - -
17/02:30pm 31.1 E 8 10 1008.8 - 0.0 - - - - - - -
17/02:00pm 31.1 E 8 10 1009.0 - 0.0 - - - - - - -
17/01:30pm 31.2 E 10 13 1009.2 - 0.0 - - - - - - -
17/01:00pm 30.6 E 10 12 1009.4 - 0.0 - - - - - - -
17/12:30pm 31.3 E 10 14 1009.7 - 0.0 - - - - - - -
17/12:00pm 30.7 E 11 17 1010.2 - 0.0 - - - - - - -
17/11:30am 31.1 E 9 11 1010.5 - 0.0 - - - - - - -
17/11:00am 31.5 E 9 12 1010.9 - 0.0 - - - - - - -
17/10:30am 31.3 E 10 12 1011.2 - 0.0 - - - - - - -
17/10:00am 31.1 E 8 9 1011.2 - 0.0 - - - - - - -
17/09:30am 30.9 E 6 7 1011.0 - 0.0 - - - - - - -
17/09:00am 30.9 E 6 7 1010.9 - 0.0 - - - - - - -
17/08:30am 31.1 E 3 5 1010.7 - 0.0 - - - - - - -
17/08:00am 30.4 E 5 7 1010.5 - 0.0 - - - - - - -
17/07:30am 29.2 E 7 8 1010.4 - 0.0 - - - - - - -
17/07:00am 29.0 E 7 9 1010.2 - 0.0 - - - - - - -
17/06:30am 28.9 E 7 10 1009.8 - 0.0 - - - - - - -
17/06:00am 29.0 ENE 6 8 1009.4 - 0.0 - - - - - - -
17/05:30am 27.8 ESE 5 7 1009.0 - 0.0 - - - - - - -
17/05:00am 27.4 ESE 6 7 1009.0 - 0.0 - - - - - - -
17/04:30am 27.1 ESE 5 6 1008.9 - 0.0 - - - - - - -
17/04:00am 27.3 SE 5 5 1008.6 - 0.0 - - - - - - -
17/03:30am 27.0 SE 5 6 1008.5 - 0.0 - - - - - - -
17/03:00am 27.0 ESE 4 5 1008.6 - 0.0 - - - - - - -
17/02:30am 27.7 E 4 5 1008.8 - 0.0 - - - - - - -
17/02:00am 28.5 NNE 4 5 1009.1 - 0.0 - - - - - - -
17/01:30am 28.8 N 4 5 1009.3 - 0.0 - - - - - - -
17/01:00am 28.9 NNE 4 5 1009.8 - 0.0 - - - - - - -
17/12:30am 28.8 N 5 6 1010.1 - 0.0 - - - - - - -
17/12:00am 29.1 NNE 5 7 1010.4 - 0.0 - - - - - - -
 
Date/Time
CST
Temp

°C
Wind Pressure Rain
since 9am
mm
Weather Cloud Vis
km
Sea
Height
m
Swell
Dir
 
Speed
knots
Gust
knots
hPa Trend Height
m
Period
s
Dir
16/11:30pm 29.2 N 6 7 1010.3 - 0.0 - - - - - - -
16/11:00pm 29.4 NE 6 8 1010.3 - 0.0 - - - - - - -
16/10:30pm 29.3 NE 7 8 1010.2 - 0.0 - - - - - - -
16/10:00pm 29.4 NE 7 9 1010.1 - 0.0 - - - - - - -
16/09:30pm 29.5 NE 8 9 1010.0 - 0.0 - - - - - - -
16/09:00pm 29.4 NE 6 8 1009.7 - 0.0 - - - - - - -
16/08:30pm 29.5 ENE 6 8 1009.3 - 0.0 - - - - - - -
16/08:00pm 29.6 NE 7 8 1008.9 - 0.0 - - - - - - -
16/07:30pm 29.6 NE 6 8 1008.6 - 0.0 - - - - - - -
16/07:00pm 29.5 ENE 6 7 1008.3 - 0.0 - - - - - - -
16/06:30pm 29.5 ENE 6 7 1008.2 - 0.0 - - - - - - -
16/06:00pm 29.8 ENE 5 7 1008.1 - 0.0 - - - - - - -
16/05:30pm 30.1 NE 6 7 1007.9 - 0.0 - - - - - - -
16/05:00pm 30.1 NE 7 9 1007.6 - 0.0 - - - - - - -
16/04:30pm 30.0 NE 8 9 1007.4 - 0.0 - - - - - - -
16/04:00pm 30.3 NE 5 7 1007.5 - 0.0 - - - - - - -
16/03:30pm 30.5 ENE 6 7 1007.7 - 0.0 - - - - - - -
16/03:00pm 31.0 ENE 6 7 1007.9 - 0.0 - - - - - - -
16/02:30pm 30.7 NE 6 7 1008.0 - 0.0 - - - - - - -
16/02:00pm 31.3 ENE 4 5 1008.4 - 0.0 - - - - - - -
16/01:30pm 31.5 N 4 5 1008.7 - 0.0 - - - - - - -
16/01:00pm 31.6 NE 4 6 1009.1 - 0.0 - - - - - - -
16/12:30pm 31.1 E 6 8 1009.4 - 0.0 - - - - - - -
16/12:00pm 31.5 E 7 9 1009.8 - 0.0 - - - - - - -
16/11:30am 31.5 E 6 8 1010.2 - 0.0 - - - - - - -
16/11:00am 31.3 E 10 11 1010.6 - 0.0 - - - - - - -
16/10:30am 31.6 E 10 11 1010.7 - 0.0 - - - - - - -
16/10:00am 31.6 ESE 9 12 1010.6 - 0.0 - - - - - - -
16/09:30am 30.2 SSE 9 11 1010.8 - 0.0 - - - - - - -
16/09:00am 28.7 SE 12 17 1011.0 - 0.0 - - - - - - -
16/08:30am 28.2 ESE 11 18 1010.9 - 0.0 - - - - - - -
16/08:00am 29.3 ESE 6 8 1010.6 - 0.0 - - - - - - -
16/07:30am 29.0 ESE 5 7 1010.3 - 0.0 - - - - - - -
16/07:00am 28.0 SE 5 7 1010.1 - 0.0 - - - - - - -
16/06:30am 28.9 ENE 8 10 1009.9 - 0.0 - - - - - - -
16/06:00am 29.2 ENE 9 11 1009.7 - 0.0 - - - - - - -
16/05:30am 28.9 ENE 7 9 1009.4 - 0.0 - - - - - - -
16/05:00am 28.9 NE 6 7 1009.2 - 0.0 - - - - - - -

Other Formats:

Comma delimited format used in spreadsheet applications
http://www.bom.gov.au/fwo/IDD60701/IDD60701.94135.axf

JavaScript Object Notation format (JSON) in row-major order
http://www.bom.gov.au/fwo/IDD60701/IDD60701.94135.json